Storm Events Database

Event Details

Event Hail
Magnitude 0.75 in.
State NEW YORK
County/Area SCHUYLER
WFO BGM
Report Source Public
NCDC Data Source CSV
Begin Date 2011-04-26 14:55:00.0 EST-5
Begin Location 0N READING CENTER
Begin Lat/Lon 42.43/-76.93
End Date 2011-04-26 14:55:00.0 EST-5
Deaths Direct/Indirect 0/0 (fatality details below, when available...)
Injuries Direct/Indirect 0/0
Property Damage 0.00K
Crop Damage 0.00K
Episode Narrative A slow moving warm front pushed northward across central New York late in the afternoon on April 25th. A warm and relatively moist air mass covered the region, with showers and storms developing, especially in the unstable air south of the frontal boundary, where breaks in the cloud cover allowed temperatures to rise to near 70 degrees. Severe weather developed, and in addition to reports of severe wind damage and hail, plenty of wind shear in the vicinity of the warm front allowed for a few super-cell thunderstorms and tornadoes to develop. In addition, areas of heavy rain caused significant flash flooding in several locations of central New York.
Event Narrative


     ‚Äč



All events for this episode:

Location County/Zone St. Date Time T.Z. Type Mag Dth Inj PrD CrD
Totals: 0 0 10.181M 0.00K
BIG FLATS CHEMUNG CO. NY 04/25/2011 22:00 EST-5 Flash Flood 0 0 10.00K 0.00K
RUSHVILLE YATES CO. NY 04/26/2011 12:55 EST-5 Thunderstorm Wind 50 kts. EG 0 0 5.00K 0.00K
FOSTERVILLE CAYUGA CO. NY 04/26/2011 13:30 EST-5 Thunderstorm Wind 50 kts. EG 0 0 5.00K 0.00K
ELBRIDGE ONONDAGA CO. NY 04/26/2011 13:50 EST-5 Thunderstorm Wind 50 kts. EG 0 0 5.00K 0.00K
MARCELLUS ONONDAGA CO. NY 04/26/2011 14:21 EST-5 Thunderstorm Wind 50 kts. EG 0 0 5.00K 0.00K
LEWISTON MANOR ONONDAGA CO. NY 04/26/2011 14:30 EST-5 Hail 1.25 in. 0 0 0.00K 0.00K
LIVERPOOL ONONDAGA CO. NY 04/26/2011 14:35 EST-5 Hail 0.75 in. 0 0 0.00K 0.00K
LEWISTON MANOR ONONDAGA CO. NY 04/26/2011 14:42 EST-5 Hail 1.25 in. 0 0 0.00K 0.00K
LIVERPOOL ONONDAGA CO. NY 04/26/2011 14:42 EST-5 Hail 0.88 in. 0 0 0.00K 0.00K
EAST SYRACUSE ONONDAGA CO. NY 04/26/2011 14:45 EST-5 Hail 1.00 in. 0 0 0.00K 0.00K
KIRKVILLE ONONDAGA CO. NY 04/26/2011 14:49 EST-5 Hail 1.00 in. 0 0 0.00K 0.00K
READING CENTER SCHUYLER CO. NY 04/26/2011 14:55 EST-5 Hail 0.75 in. 0 0 0.00K 0.00K
SULLIVAN MADISON CO. NY 04/26/2011 15:02 EST-5 Thunderstorm Wind 56 kts. MG 0 0 0.00K 0.00K
SOUTH BAY MADISON CO. NY 04/26/2011 15:12 EST-5 Thunderstorm Wind 60 kts. EG 0 0 10.00K 0.00K
CANASTOTA MADISON CO. NY 04/26/2011 15:16 EST-5 Hail 0.88 in. 0 0 0.00K 0.00K
SYLVAN BEACH ONEIDA CO. NY 04/26/2011 15:17 EST-5 Hail 1.75 in. 0 0 5.00K 0.00K
SHEPPS CORNERS ONONDAGA CO. NY 04/26/2011 15:18 EST-5 Thunderstorm Wind 60 kts. EG 0 0 8.00K 0.00K
VERONA MILLS ONEIDA CO. NY 04/26/2011 15:20 EST-5 Tornado EF1 0 0 5.00K 0.00K
VERONA ONEIDA CO. NY 04/26/2011 15:21 EST-5 Hail 1.25 in. 0 0 0.00K 0.00K
BLOSSVALE ONEIDA CO. NY 04/26/2011 15:25 EST-5 Hail 1.00 in. 0 0 0.00K 0.00K
ROME ONEIDA CO. NY 04/26/2011 15:27 EST-5 Thunderstorm Wind 56 kts. MG 0 0 0.00K 0.00K
LEE ONEIDA CO. NY 04/26/2011 15:29 EST-5 Hail 1.75 in. 0 0 0.00K 0.00K
ROME ONEIDA CO. NY 04/26/2011 15:30 EST-5 Flash Flood 0 0 15.00K 0.00K
ROME ONEIDA CO. NY 04/26/2011 15:30 EST-5 Thunderstorm Wind 50 kts. EG 0 0 3.00K 0.00K
CAMILLUS ONONDAGA CO. NY 04/26/2011 15:45 EST-5 Hail 1.50 in. 0 0 0.00K 0.00K
MARCELLUS ONONDAGA CO. NY 04/26/2011 15:45 EST-5 Hail 1.50 in. 0 0 0.00K 0.00K
SKANEATELES ONONDAGA CO. NY 04/26/2011 15:45 EST-5 Hail 1.00 in. 0 0 0.00K 0.00K
CAMILLUS ONONDAGA CO. NY 04/26/2011 15:46 EST-5 Hail 1.75 in. 0 0 0.00K 0.00K
STANLEY MANOR ONONDAGA CO. NY 04/26/2011 15:55 EST-5 Hail 1.25 in. 0 0 0.00K 0.00K
LIVERPOOL ONONDAGA CO. NY 04/26/2011 15:58 EST-5 Hail 0.88 in. 0 0 0.00K 0.00K
BALDWINSVILLE ONONDAGA CO. NY 04/26/2011 16:00 EST-5 Flash Flood 0 0 9.000M 0.00K
LEWISTON MANOR ONONDAGA CO. NY 04/26/2011 16:00 EST-5 Thunderstorm Wind 50 kts. EG 0 0 5.00K 0.00K
LIVERPOOL ONONDAGA CO. NY 04/26/2011 16:00 EST-5 Hail 1.75 in. 0 0 0.00K 0.00K
NORTH SYRACUSE ONONDAGA CO. NY 04/26/2011 16:00 EST-5 Hail 1.00 in. 0 0 0.00K 0.00K
SOLVAY ONONDAGA CO. NY 04/26/2011 16:00 EST-5 Hail 1.00 in. 0 0 0.00K 0.00K
GILBERTSVILLE OTSEGO CO. NY 04/26/2011 20:35 EST-5 Tornado EF1 0 0 100.00K 0.00K
MARYLAND OTSEGO CO. NY 04/26/2011 21:00 EST-5 Hail 0.75 in. 0 0 0.00K 0.00K
GILBERTSVILLE OTSEGO CO. NY 04/26/2011 22:30 EST-5 Flash Flood 0 0 1.000M 0.00K
Totals: 0 0 10.181M 0.00K